Time;durP1;ratioP1;P1;durP2;ratioP2;P2;SDS_P1;SDS_P2;PMS_P1;PMS_P2;Temp;Humidity;BMP_temperature;BMP_pressure;BME280_temperature;BME280_humidity;BME280_pressure;Samples;Min_cycle;Max_cycle;Signal;HPM_P1;HPM_P2
2022/11/20 00:01:38;;;;;;;4.68;1.88;;;;;;;16.06;58.43;99600.25;5105032;28;20023;-70
2022/11/20 00:04:03;;;;;;;4.90;2.05;;;;;;;16.06;58.39;99595.00;5114870;28;20365;-70
2022/11/20 00:06:30;;;;;;;3.92;1.77;;;;;;;16.03;58.12;99589.84;5115346;28;20031;-70
2022/11/20 00:08:59;;;;;;;4.20;1.77;;;;;;;16.05;58.13;99588.03;5115201;28;20023;-70
2022/11/20 00:11:26;;;;;;;3.97;1.83;;;;;;;16.04;58.15;99591.56;5114004;28;20023;-70
2022/11/20 00:13:56;;;;;;;3.42;1.63;;;;;;;16.01;58.21;99591.69;5114634;28;20047;-70
2022/11/20 00:16:24;;;;;;;4.13;1.85;;;;;;;16.00;58.30;99589.97;5114536;28;20067;-70
2022/11/20 00:18:50;;;;;;;4.05;1.65;;;;;;;16.04;58.33;99594.19;5114775;28;20027;-70
2022/11/20 00:21:18;;;;;;;3.78;1.50;;;;;;;16.04;58.23;99593.34;5114875;28;20028;-70
2022/11/20 00:23:44;;;;;;;3.72;1.85;;;;;;;16.01;58.04;99594.31;5114921;28;20379;-70
2022/11/20 00:26:12;;;;;;;4.65;1.70;;;;;;;16.02;58.17;99601.28;5114831;28;20031;-69
2022/11/20 00:28:38;;;;;;;4.50;1.75;;;;;;;16.02;58.15;99596.03;5114905;28;20027;-69
2022/11/20 00:31:10;;;;;;;2.88;1.50;;;;;;;15.97;58.16;99595.34;5114571;28;20157;-69
2022/11/20 00:33:35;;;;;;;3.67;1.75;;;;;;;15.96;58.55;99593.63;5100995;28;20020;-70
2022/11/20 00:36:06;;;;;;;3.92;1.95;;;;;;;15.95;58.10;99592.78;5114449;28;20035;-69
2022/11/20 00:38:32;;;;;;;3.65;1.67;;;;;;;15.97;58.43;99595.34;5112914;28;20055;-70
2022/11/20 00:40:59;;;;;;;3.88;1.70;;;;;;;15.93;58.12;99591.13;5114493;28;20024;-70
2022/11/20 00:43:25;;;;;;;3.25;1.60;;;;;;;15.96;58.38;99588.38;5114662;28;20364;-69
2022/11/20 00:45:56;;;;;;;3.97;1.85;;;;;;;15.93;58.11;99589.34;5114746;28;20479;-70
2022/11/20 00:48:21;;;;;;;3.42;1.48;;;;;;;15.94;58.22;99592.84;5113800;28;20031;-67
2022/11/20 00:50:47;;;;;;;3.60;1.73;;;;;;;15.94;58.11;99587.56;5114618;28;20023;-70
2022/11/20 00:53:12;;;;;;;4.18;1.45;;;;;;;15.92;58.21;99591.97;5114544;28;20102;-70
2022/11/20 00:55:37;;;;;;;3.17;1.58;;;;;;;15.91;58.30;99590.28;5114475;28;20024;-70
2022/11/20 00:58:03;;;;;;;4.65;1.65;;;;;;;15.89;58.19;99590.31;5114528;28;20122;-70
2022/11/20 01:00:28;;;;;;;3.08;1.38;;;;;;;15.88;58.19;99590.41;5099445;28;20024;-70
2022/11/20 01:02:56;;;;;;;3.53;1.60;;;;;;;15.92;58.42;99591.97;5113789;28;20395;-69
2022/11/20 01:05:21;;;;;;;3.50;1.70;;;;;;;15.91;58.26;99590.28;5114281;28;20027;-70
2022/11/20 01:07:46;;;;;;;3.20;1.50;;;;;;;15.90;58.27;99593.81;5113928;27;20022;-70
2022/11/20 01:10:12;;;;;;;3.38;1.38;;;;;;;15.89;58.29;99586.84;5114050;28;20020;-69
2022/11/20 01:12:37;;;;;;;3.83;1.40;;;;;;;15.89;58.07;99592.13;5113554;28;20062;-70
2022/11/20 01:15:03;;;;;;;4.00;1.52;;;;;;;15.89;58.06;99590.31;5113836;28;20066;-70
2022/11/20 01:17:28;;;;;;;3.33;1.42;;;;;;;15.84;58.18;99585.25;5113394;28;20027;-70
2022/11/20 01:19:54;;;;;;;2.75;1.35;;;;;;;15.86;58.29;99598.34;5113543;28;20032;-70
2022/11/20 01:22:19;;;;;;;3.35;1.52;;;;;;;15.88;58.18;99590.41;5113794;28;20039;-69
2022/11/20 01:24:45;;;;;;;3.33;1.70;;;;;;;15.83;58.54;99591.44;5113249;28;20027;-71
2022/11/20 01:27:10;;;;;;;4.30;2.15;;;;;;;15.84;58.41;99595.78;5113356;28;20035;-70
2022/11/20 01:29:35;;;;;;;3.45;1.27;;;;;;;15.87;58.38;99593.97;5096681;28;20103;-70
2022/11/20 01:32:01;;;;;;;3.70;1.38;;;;;;;15.84;58.50;99595.78;5097260;28;20107;-70
2022/11/20 01:34:26;;;;;;;4.15;1.27;;;;;;;15.87;58.47;99593.97;5096547;28;20024;-70
2022/11/20 01:36:53;;;;;;;4.38;1.67;;;;;;;15.81;58.28;99590.63;5106632;28;20031;-71
2022/11/20 01:39:21;;;;;;;2.40;1.33;;;;;;;15.86;58.46;99594.84;5100578;28;20165;-70
2022/11/20 01:44:54;;;;;;;3.60;1.50;;;;;;;15.83;58.45;99599.31;5113132;28;20038;-70
2022/11/20 01:47:29;;;;;;;2.35;1.10;;;;;;;15.84;58.51;99603.66;5104660;28;20031;-70
2022/11/20 01:50:00;;;;;;;4.65;1.38;;;;;;;15.80;58.42;99596.78;5107956;28;20028;-70
2022/11/20 01:53:06;;;;;;;3.08;1.30;;;;;;;15.82;58.24;99599.38;5113116;28;20122;-70
2022/11/20 01:55:36;;;;;;;3.03;1.40;;;;;;;15.82;58.48;99608.13;5050226;28;20029;-70
2022/11/20 01:58:03;;;;;;;2.50;1.33;;;;;;;15.79;58.15;99602.97;5049964;28;20048;-70
2022/11/20 02:00:29;;;;;;;3.05;1.33;;;;;;;15.79;58.37;99607.41;5049610;28;20452;-69
2022/11/20 02:02:58;;;;;;;2.78;1.50;;;;;;;15.79;58.33;99596.88;5050090;28;20037;-70
2022/11/20 02:05:38;;;;;;;3.05;1.50;;;;;;;15.78;58.44;99606.53;5049971;28;20160;-70
2022/11/20 02:08:05;;;;;;;3.78;1.30;;;;;;;15.78;58.31;99601.25;5050260;28;20037;-70
2022/11/20 02:10:31;;;;;;;3.53;1.42;;;;;;;15.79;58.34;99602.97;5049833;28;20033;-70
2022/11/20 02:15:42;;;;;;;2.95;1.40;;;;;;;15.79;58.01;99610.03;5046210;28;20107;-70
2022/11/20 02:18:09;;;;;;;2.30;1.27;;;;;;;15.76;58.20;99612.75;5033219;28;20040;-70
2022/11/20 02:20:35;;;;;;;3.28;1.35;;;;;;;15.76;58.24;99618.00;5049756;28;21372;-70
2022/11/20 02:23:16;;;;;;;3.40;1.17;;;;;;;15.75;58.42;99614.53;5049811;28;20064;-71
2022/11/20 02:25:43;;;;;;;2.28;1.27;;;;;;;15.75;58.27;99611.91;5049676;28;20534;-70
2022/11/20 02:28:10;;;;;;;3.00;1.30;;;;;;;15.72;58.43;99606.75;5049394;28;20033;-70
2022/11/20 02:30:35;;;;;;;2.78;1.27;;;;;;;15.71;58.54;99613.78;5103535;28;20521;-70
2022/11/20 02:33:00;;;;;;;3.03;1.23;;;;;;;15.72;58.11;99612.00;5112274;28;20019;-70
2022/11/20 02:35:26;;;;;;;4.38;1.70;;;;;;;15.73;58.30;99608.47;5111879;28;20051;-70
2022/11/20 02:37:55;;;;;;;2.80;1.50;;;;;;;15.71;58.42;99610.31;5090992;28;20023;-69
2022/11/20 02:40:21;;;;;;;2.80;1.25;;;;;;;15.74;58.27;99610.16;5103953;28;20102;-70
2022/11/20 02:42:47;;;;;;;3.22;1.48;;;;;;;15.71;58.18;99605.03;5111553;28;20057;-70
2022/11/20 02:45:13;;;;;;;2.88;1.15;;;;;;;15.71;58.09;99610.31;5094053;28;20032;-70
2022/11/20 02:47:38;;;;;;;3.65;1.33;;;;;;;15.69;58.18;99602.47;5112517;28;20027;-70
2022/11/20 02:50:05;;;;;;;3.40;1.50;;;;;;;15.73;58.23;99603.19;5112235;28;20035;-70
2022/11/20 02:52:30;;;;;;;3.33;1.58;;;;;;;15.71;58.02;99602.41;5112199;28;20483;-70
2022/11/20 02:54:56;;;;;;;3.22;1.70;;;;;;;15.69;58.18;99606.88;5111866;28;20076;-70
2022/11/20 02:57:21;;;;;;;4.13;1.63;;;;;;;15.68;58.10;99615.66;5112063;28;20027;-70
2022/11/20 02:59:46;;;;;;;3.28;1.55;;;;;;;15.69;58.20;99618.25;5112138;28;20031;-69
2022/11/20 03:02:12;;;;;;;3.35;1.55;;;;;;;15.65;58.16;99621.06;5112321;28;20039;-70
2022/11/20 03:04:37;;;;;;;2.95;1.55;;;;;;;15.67;58.00;99616.56;5112460;28;20030;-70
2022/11/20 03:07:03;;;;;;;1.75;1.20;;;;;;;15.64;58.08;99629.84;5093418;28;20069;-70
2022/11/20 03:09:29;;;;;;;3.00;1.50;;;;;;;15.65;58.19;99621.06;5107073;28;20042;-70
2022/11/20 03:11:54;;;;;;;3.20;1.50;;;;;;;15.67;57.99;99621.84;5105729;28;20107;-70
2022/11/20 03:14:19;;;;;;;4.20;1.48;;;;;;;15.61;58.13;99619.44;5100404;28;20055;-70
2022/11/20 03:16:45;;;;;;;2.40;1.50;;;;;;;15.64;58.16;99614.06;5106756;28;20027;-69
2022/11/20 03:19:12;;;;;;;3.53;1.65;;;;;;;15.65;58.21;99613.16;5111903;28;20027;-70
2022/11/20 03:21:37;;;;;;;2.83;1.45;;;;;;;15.63;57.92;99612.34;5112073;28;20080;-70
2022/11/20 03:24:03;;;;;;;2.95;1.52;;;;;;;15.62;57.94;99614.13;5111968;28;20028;-69
2022/11/20 03:26:28;;;;;;;2.63;1.35;;;;;;;15.59;57.93;99610.75;5111450;28;20396;-70
2022/11/20 03:28:57;;;;;;;1.73;1.00;;;;;;;15.62;58.04;99610.63;5093487;28;20028;-70
2022/11/20 03:31:28;;;;;;;2.72;1.48;;;;;;;15.61;58.12;99608.91;5111748;28;20028;-70
2022/11/20 03:33:53;;;;;;;2.30;1.20;;;;;;;15.59;58.06;99602.84;5111781;28;20555;-70
2022/11/20 03:36:20;;;;;;;3.15;1.55;;;;;;;15.60;58.09;99604.56;5111699;28;20028;-70
2022/11/20 03:38:46;;;;;;;2.33;1.38;;;;;;;15.57;58.14;99606.41;5110536;28;20019;-70
2022/11/20 03:41:17;;;;;;;3.00;1.30;;;;;;;15.57;58.17;99593.25;5111067;28;20510;-70
2022/11/20 03:43:54;;;;;;;2.92;1.42;;;;;;;15.55;57.78;99592.44;5111897;28;20061;-70
2022/11/20 03:46:20;;;;;;;2.53;1.05;;;;;;;15.53;58.21;99596.03;5112671;28;20073;-70
2022/11/20 03:48:46;;;;;;;2.97;1.20;;;;;;;15.55;58.02;99600.31;5115641;28;20121;-70
2022/11/20 03:51:17;;;;;;;2.38;1.35;;;;;;;15.52;57.94;99589.94;5114702;28;20032;-70
2022/11/20 03:53:44;;;;;;;3.15;1.50;;;;;;;15.53;58.14;99596.91;5115499;28;20024;-70
2022/11/20 03:56:12;;;;;;;2.80;1.60;;;;;;;15.49;58.03;99595.28;5115069;28;20104;-70
2022/11/20 03:58:39;;;;;;;3.05;1.40;;;;;;;15.52;57.82;99592.56;5115075;28;20556;-68
2022/11/20 04:01:23;;;;;;;3.88;1.45;;;;;;;15.51;58.23;99587.34;5115312;28;20068;-70
2022/11/20 04:03:51;;;;;;;2.90;1.50;;;;;;;15.52;58.10;99584.66;5115273;28;20034;-70
2022/11/20 04:06:36;;;;;;;3.92;1.77;;;;;;;15.50;57.98;99588.25;5115001;28;20027;-70
2022/11/20 04:09:02;;;;;;;2.53;1.20;;;;;;;15.48;58.07;99593.56;5115260;28;20055;-69
2022/11/20 04:11:33;;;;;;;3.05;1.30;;;;;;;15.49;57.90;99595.28;5114537;28;20079;-70
2022/11/20 04:14:03;;;;;;;3.35;1.48;;;;;;;15.49;58.20;99590.03;5114592;28;20058;-70
2022/11/20 04:16:31;;;;;;;3.28;1.50;;;;;;;15.48;58.09;99588.31;5114854;28;20032;-70
2022/11/20 04:18:59;;;;;;;2.65;1.25;;;;;;;15.45;58.00;99588.41;5114846;28;20023;-70
2022/11/20 04:21:25;;;;;;;3.63;1.33;;;;;;;15.46;58.05;99584.91;5114798;28;20066;-70
2022/11/20 04:23:55;;;;;;;3.92;1.27;;;;;;;15.47;58.22;99591.88;5114273;28;20023;-70
2022/11/20 04:26:21;;;;;;;2.55;1.38;;;;;;;15.43;58.05;99583.22;5096476;28;20035;-70
2022/11/20 04:28:47;;;;;;;2.95;1.38;;;;;;;15.46;57.99;99584.91;5114843;28;20024;-70
2022/11/20 04:31:27;;;;;;;2.88;1.38;;;;;;;15.43;58.05;99590.25;5115055;28;20084;-70
2022/11/20 04:33:53;;;;;;;3.60;1.60;;;;;;;15.41;58.17;99587.66;5114332;28;20024;-70
2022/11/20 04:36:20;;;;;;;2.38;1.30;;;;;;;15.39;57.83;99578.09;5114767;28;20045;-69
2022/11/20 04:38:46;;;;;;;3.20;1.65;;;;;;;15.39;57.97;99572.84;5113044;28;20085;-70
2022/11/20 04:41:17;;;;;;;3.72;1.75;;;;;;;15.39;57.96;99575.47;5114028;28;20032;-69
2022/11/20 04:43:48;;;;;;;3.17;1.63;;;;;;;15.38;57.73;99573.78;5114389;28;20126;-69
2022/11/20 04:46:13;;;;;;;2.28;1.30;;;;;;;15.38;57.93;99558.00;5114552;28;20494;-69
2022/11/20 04:48:39;;;;;;;3.60;1.58;;;;;;;15.38;57.92;99565.88;5114401;27;20134;-70
2022/11/20 04:51:04;;;;;;;2.58;1.30;;;;;;;15.38;57.83;99558.88;5114603;28;20015;-70
2022/11/20 04:53:30;;;;;;;3.45;1.40;;;;;;;15.34;58.08;99565.13;5114046;28;20515;-67
2022/11/20 04:56:00;;;;;;;3.08;1.40;;;;;;;15.32;57.88;99571.34;5095939;28;20048;-70
2022/11/20 04:58:26;;;;;;;2.58;1.40;;;;;;;15.32;58.17;99574.88;5113240;28;20051;-70
2022/11/20 05:00:51;;;;;;;2.40;1.35;;;;;;;15.32;58.22;99571.34;5114486;28;20051;-70
2022/11/20 05:03:17;;;;;;;2.80;1.60;;;;;;;15.36;57.71;99575.59;5113859;28;20550;-69
2022/11/20 05:05:42;;;;;;;2.85;1.42;;;;;;;15.30;57.83;99574.91;5113820;27;20095;-69
2022/11/20 05:08:07;;;;;;;2.88;1.40;;;;;;;15.33;58.11;99567.81;5113620;28;20472;-70
2022/11/20 05:10:33;;;;;;;2.28;1.40;;;;;;;15.29;57.87;99562.69;5113709;28;20081;-70
2022/11/20 05:12:58;;;;;;;2.53;1.48;;;;;;;15.32;57.98;99568.72;5113892;28;20024;-69
2022/11/20 05:15:23;;;;;;;4.38;1.60;;;;;;;15.30;57.97;99574.91;5113884;28;20389;-69
2022/11/20 05:17:50;;;;;;;2.75;1.27;;;;;;;15.30;58.03;99569.66;5113814;28;20027;-70
2022/11/20 05:20:16;;;;;;;2.55;1.45;;;;;;;15.29;58.04;99573.19;5113703;28;20024;-69
2022/11/20 05:22:42;;;;;;;4.75;1.58;;;;;;;15.29;58.16;99570.56;5113107;28;20072;-70
2022/11/20 05:25:08;;;;;;;2.55;1.40;;;;;;;15.28;57.80;99576.75;5113561;28;20028;-70
2022/11/20 05:27:33;;;;;;;3.97;1.80;;;;;;;15.29;57.80;99567.94;5113622;28;20047;-70
2022/11/20 05:29:59;;;;;;;3.90;1.65;;;;;;;15.26;57.79;99568.03;5113271;28;20487;-70
2022/11/20 05:32:25;;;;;;;3.15;1.67;;;;;;;15.26;58.02;99562.78;5113300;28;20012;-70
2022/11/20 05:34:53;;;;;;;2.75;1.30;;;;;;;15.25;57.64;99566.31;5113891;28;20023;-71
2022/11/20 05:37:19;;;;;;;2.15;1.20;;;;;;;15.26;57.75;99565.41;5112770;28;20049;-70
2022/11/20 05:39:44;;;;;;;2.55;1.20;;;;;;;15.25;57.61;99563.69;5111767;28;20031;-69
2022/11/20 05:44:54;;;;;;;3.40;1.67;;;;;;;15.22;57.75;99566.44;5113272;28;20027;-70
2022/11/20 05:47:19;;;;;;;2.33;1.20;;;;;;;15.20;57.53;99568.25;5113289;28;20024;-70
2022/11/20 05:49:45;;;;;;;4.07;1.30;;;;;;;15.21;57.49;99563.88;5113043;28;20035;-70
2022/11/20 05:52:10;;;;;;;2.33;1.30;;;;;;;15.16;57.97;99564.88;5112873;28;20126;-70
2022/11/20 05:54:35;;;;;;;2.97;1.60;;;;;;;15.14;57.98;99563.22;5112841;28;20031;-70
2022/11/20 05:57:01;;;;;;;3.58;1.60;;;;;;;15.11;57.92;99558.91;5113319;28;20399;-70
2022/11/20 05:59:26;;;;;;;2.45;1.30;;;;;;;15.15;57.50;99562.28;5094520;28;20028;-70
2022/11/20 06:01:52;;;;;;;3.53;1.60;;;;;;;15.15;57.69;99572.81;5094325;28;20020;-70
2022/11/20 06:04:19;;;;;;;2.72;1.40;;;;;;;15.12;57.85;99572.94;5094675;28;20066;-70
2022/11/20 06:06:45;;;;;;;2.65;1.40;;;;;;;15.13;57.70;99572.00;5112254;28;20027;-69
2022/11/20 06:09:10;;;;;;;2.35;1.52;;;;;;;15.13;57.67;99572.00;5112284;28;20114;-70
2022/11/20 06:11:35;;;;;;;2.55;1.40;;;;;;;15.12;57.85;99575.56;5112549;28;20028;-68
2022/11/20 06:14:01;;;;;;;2.53;1.45;;;;;;;15.09;57.72;99576.53;5112774;28;20554;-70
2022/11/20 06:16:26;;;;;;;2.35;1.20;;;;;;;15.11;57.65;99574.69;5112822;28;20039;-70
2022/11/20 06:18:52;;;;;;;2.38;1.30;;;;;;;15.10;57.93;99580.84;5112896;28;20427;-70
2022/11/20 06:21:20;;;;;;;2.92;1.50;;;;;;;15.11;57.79;99579.09;5111920;28;20499;-69
2022/11/20 06:23:46;;;;;;;2.42;1.40;;;;;;;15.06;57.89;99575.78;5112296;28;20057;-70
2022/11/20 06:26:15;;;;;;;2.70;1.30;;;;;;;15.10;57.79;99577.34;5112602;28;20027;-70
2022/11/20 06:28:41;;;;;;;2.72;1.35;;;;;;;15.09;57.75;99575.66;5112284;28;20115;-70
2022/11/20 06:31:07;;;;;;;2.90;1.40;;;;;;;15.07;57.79;99569.59;5112692;28;20452;-70
2022/11/20 06:33:33;;;;;;;3.33;1.52;;;;;;;15.07;57.69;99577.47;5112869;28;20523;-70
2022/11/20 06:36:00;;;;;;;3.08;1.40;;;;;;;15.06;57.63;99570.50;5111960;28;20102;-70
2022/11/20 06:38:26;;;;;;;2.63;1.40;;;;;;;15.01;57.77;99568.91;5110944;28;20072;-70
2022/11/20 06:40:52;;;;;;;2.58;1.55;;;;;;;15.03;57.72;99576.72;5112435;28;20076;-70
2022/11/20 06:43:17;;;;;;;3.30;1.50;;;;;;;15.03;58.06;99577.56;5112188;28;20426;-70
2022/11/20 06:45:43;;;;;;;4.20;1.80;;;;;;;15.01;57.72;99568.91;5112398;28;20027;-70
2022/11/20 06:48:09;;;;;;;4.55;1.52;;;;;;;14.99;57.71;99570.72;5112295;28;20019;-70
2022/11/20 06:50:36;;;;;;;2.55;1.50;;;;;;;15.00;57.88;99572.44;5111923;28;20073;-70
2022/11/20 06:53:03;;;;;;;2.55;1.55;;;;;;;14.98;57.80;99563.75;5093799;28;20024;-70
2022/11/20 06:55:28;;;;;;;2.17;1.30;;;;;;;14.99;57.83;99570.72;5112146;28;20147;-70
2022/11/20 06:57:53;;;;;;;3.30;1.50;;;;;;;14.92;57.94;99570.97;5093877;28;20024;-70
2022/11/20 07:00:19;;;;;;;2.92;1.48;;;;;;;14.95;57.50;99568.22;5111980;28;20022;-68
2022/11/20 07:02:44;;;;;;;2.60;1.30;;;;;;;14.91;57.95;99564.84;5112268;28;20055;-68
2022/11/20 07:05:10;;;;;;;2.85;1.42;;;;;;;14.94;57.87;99571.78;5111779;28;20020;-69
2022/11/20 07:07:35;;;;;;;3.25;1.67;;;;;;;14.92;58.00;99574.47;5110204;28;20043;-71
2022/11/20 07:10:00;;;;;;;3.65;1.73;;;;;;;14.90;57.80;99571.03;5089793;28;20015;-71
2022/11/20 07:12:26;;;;;;;3.00;1.63;;;;;;;14.89;57.88;99569.31;5111721;28;20368;-70
2022/11/20 07:14:51;;;;;;;3.25;1.65;;;;;;;14.89;57.87;99574.56;5103434;28;20090;-69
2022/11/20 07:17:17;;;;;;;2.90;1.63;;;;;;;14.85;57.80;99580.81;5093675;28;20874;-69
2022/11/20 07:19:42;;;;;;;3.05;1.50;;;;;;;14.86;57.75;99585.16;5104491;28;20020;-70
2022/11/20 07:22:08;;;;;;;4.13;1.40;;;;;;;14.87;57.90;99586.91;5103674;28;20554;-70
2022/11/20 07:24:34;;;;;;;3.17;1.67;;;;;;;14.86;57.80;99587.78;5115845;28;20036;-70
2022/11/20 07:27:00;;;;;;;2.97;1.63;;;;;;;14.80;57.98;99590.63;5101047;28;20031;-70
2022/11/20 07:29:25;;;;;;;3.33;1.60;;;;;;;14.80;57.70;99593.25;5115745;28;20068;-69
2022/11/20 07:31:51;;;;;;;3.30;1.67;;;;;;;14.81;57.76;99587.94;5115784;28;20020;-68
2022/11/20 07:34:16;;;;;;;2.72;1.40;;;;;;;14.79;57.75;99591.53;5097023;28;20026;-70
2022/11/20 07:36:41;;;;;;;3.35;1.52;;;;;;;14.81;58.16;99600.25;5115825;28;20023;-70
2022/11/20 07:39:07;;;;;;;3.08;1.92;;;;;;;14.75;57.91;99599.53;5115031;28;20028;-70
2022/11/20 07:41:32;;;;;;;2.83;1.60;;;;;;;14.78;57.84;99603.84;5115512;28;20092;-69
2022/11/20 07:43:58;;;;;;;2.50;1.50;;;;;;;14.78;58.07;99595.94;5082382;28;20031;-71
2022/11/20 07:46:23;;;;;;;2.75;1.52;;;;;;;14.74;57.66;99592.56;5115498;28;20061;-70
2022/11/20 07:48:49;;;;;;;2.58;1.63;;;;;;;14.75;57.91;99591.66;5115178;28;20022;-71
2022/11/20 07:51:14;;;;;;;3.50;1.50;;;;;;;14.76;58.12;99601.25;5115504;28;20034;-71
2022/11/20 07:53:39;;;;;;;3.13;1.48;;;;;;;14.76;57.90;99603.88;5115545;28;20069;-71
2022/11/20 07:56:05;;;;;;;2.72;1.60;;;;;;;14.75;57.73;99604.78;5115471;28;20050;-70
2022/11/20 07:58:32;;;;;;;2.75;1.42;;;;;;;14.75;57.87;99603.91;5097413;28;20042;-70
2022/11/20 08:01:03;;;;;;;3.63;1.60;;;;;;;14.76;57.93;99606.50;5115328;28;20479;-71
2022/11/20 08:03:28;;;;;;;4.97;1.63;;;;;;;14.77;58.11;99599.47;5114893;28;20107;-71
2022/11/20 08:05:53;;;;;;;3.05;1.77;;;;;;;14.79;57.91;99604.66;5115067;28;20054;-71
2022/11/20 08:08:19;;;;;;;3.00;1.50;;;;;;;14.78;57.84;99609.09;5115370;28;20059;-70
2022/11/20 08:10:45;;;;;;;2.45;1.30;;;;;;;14.75;58.38;99611.78;5114983;28;20495;-70
2022/11/20 08:15:54;;;;;;;3.28;1.70;;;;;;;14.81;57.83;99618.63;5113352;28;20042;-70
2022/11/20 08:18:19;;;;;;;2.42;1.55;;;;;;;14.79;58.01;99609.94;5100311;28;20480;-69
2022/11/20 08:20:45;;;;;;;3.00;1.75;;;;;;;14.79;58.03;99620.44;5112577;28;20055;-70
2022/11/20 08:23:11;;;;;;;3.22;1.50;;;;;;;14.77;58.01;99618.72;5105049;28;20059;-70
2022/11/20 08:25:37;;;;;;;2.78;1.55;;;;;;;14.80;58.25;99616.88;5097250;28;20031;-70
2022/11/20 08:28:09;;;;;;;2.70;1.65;;;;;;;14.75;58.01;99625.81;5099052;28;20177;-70
2022/11/20 08:30:35;;;;;;;3.92;1.80;;;;;;;14.76;58.08;99630.16;5093785;28;20024;-69
2022/11/20 08:33:07;;;;;;;4.88;1.83;;;;;;;14.76;57.94;99634.53;5107134;28;20016;-69
2022/11/20 08:35:35;;;;;;;3.55;2.00;;;;;;;14.76;58.15;99634.53;5094097;28;20020;-70
2022/11/20 08:38:01;;;;;;;5.25;2.90;;;;;;;14.78;57.98;99643.25;5096569;27;20020;-70
2022/11/20 08:40:26;;;;;;;4.40;2.17;;;;;;;14.76;58.19;99635.41;5095603;28;20016;-69
2022/11/20 08:42:52;;;;;;;5.07;3.03;;;;;;;14.77;58.16;99644.13;5102033;28;20160;-70
2022/11/20 08:45:19;;;;;;;4.63;2.60;;;;;;;14.77;58.39;99649.38;5093557;28;20488;-70
2022/11/20 08:47:45;;;;;;;6.63;3.28;;;;;;;14.76;58.60;99632.78;5083785;28;20023;-70
2022/11/20 08:50:12;;;;;;;5.35;3.03;;;;;;;14.74;59.10;99634.59;5099010;28;20030;-70
2022/11/20 08:52:37;;;;;;;6.72;2.67;;;;;;;14.79;58.62;99646.72;5093874;28;20028;-70
2022/11/20 08:55:04;;;;;;;5.80;2.85;;;;;;;14.77;58.81;99659.88;5101373;28;20445;-70
2022/11/20 08:57:34;;;;;;;4.88;2.90;;;;;;;14.80;58.46;99661.56;5088687;28;20546;-70
2022/11/20 09:00:00;;;;;;;5.05;3.00;;;;;;;14.82;58.71;99665.00;5101661;28;20024;-69
2022/11/20 09:02:26;;;;;;;6.72;2.67;;;;;;;14.83;58.81;99664.97;5099646;28;20026;-69
2022/11/20 09:04:51;;;;;;;6.07;2.67;;;;;;;14.82;58.64;99672.91;5104185;28;20024;-70
2022/11/20 09:07:17;;;;;;;5.75;3.03;;;;;;;14.83;58.62;99674.59;5093594;28;20095;-69
2022/11/20 09:09:42;;;;;;;5.70;2.75;;;;;;;14.85;58.57;99678.91;5092882;28;20032;-70
2022/11/20 09:12:07;;;;;;;6.38;2.70;;;;;;;14.84;58.61;99676.31;5101203;28;20096;-69
2022/11/20 09:14:33;;;;;;;5.25;2.67;;;;;;;14.86;58.80;99679.75;5098870;28;20504;-71
2022/11/20 09:16:59;;;;;;;5.20;2.67;;;;;;;14.86;58.71;99690.25;5100280;28;20115;-69
2022/11/20 09:19:24;;;;;;;5.63;2.80;;;;;;;14.87;58.95;99686.75;5105667;28;20015;-69
2022/11/20 09:21:50;;;;;;;5.88;2.83;;;;;;;14.86;58.57;99691.13;5102880;28;20024;-70
2022/11/20 09:24:16;;;;;;;5.30;2.83;;;;;;;14.88;58.75;99694.56;5105965;28;20493;-70
2022/11/20 09:26:41;;;;;;;5.15;2.78;;;;;;;14.88;58.64;99686.69;5111405;27;20054;-69
2022/11/20 09:29:07;;;;;;;5.60;2.78;;;;;;;14.90;58.68;99691.88;5116274;27;20020;-68
2022/11/20 09:31:32;;;;;;;5.57;2.55;;;;;;;14.88;58.69;99693.72;5095254;28;20044;-70
2022/11/20 09:33:57;;;;;;;5.82;2.90;;;;;;;14.89;58.93;99698.06;5107736;28;20467;-70
2022/11/20 09:36:23;;;;;;;5.40;2.78;;;;;;;14.91;58.67;99690.97;5106853;28;20024;-70
2022/11/20 09:38:49;;;;;;;6.40;3.28;;;;;;;14.90;58.81;99682.25;5101906;28;20077;-69
2022/11/20 09:41:54;;;;;;;5.53;2.70;;;;;;;14.89;59.06;99669.16;5099238;28;20027;-68
2022/11/20 09:44:58;;;;;;;6.65;3.20;;;;;;;14.90;58.99;99673.50;5053412;28;20029;-69
2022/11/20 09:47:43;;;;;;;5.15;2.80;;;;;;;14.91;58.99;99677.84;5058339;28;20211;-70
2022/11/20 09:50:42;;;;;;;5.95;3.03;;;;;;;14.91;58.91;99662.06;5059920;28;20114;-69
2022/11/20 09:53:18;;;;;;;5.00;2.75;;;;;;;14.93;58.91;99655.03;5054272;28;20029;-69
2022/11/20 09:55:45;;;;;;;5.07;2.88;;;;;;;14.95;58.71;99647.94;5059189;28;20062;-70
2022/11/20 09:58:26;;;;;;;4.88;3.17;;;;;;;14.92;58.99;99636.66;5056459;28;20037;-69
2022/11/20 10:00:56;;;;;;;6.13;2.90;;;;;;;14.95;59.02;99633.91;5053095;28;20231;-70
2022/11/20 10:03:36;;;;;;;4.72;2.95;;;;;;;14.93;59.06;99627.88;5061999;28;20040;-68
2022/11/20 10:06:04;;;;;;;4.50;2.70;;;;;;;14.92;59.14;99620.91;5057338;28;20032;-70
2022/11/20 10:08:44;;;;;;;5.00;2.65;;;;;;;14.95;59.13;99637.41;5051928;28;20029;-70
2022/11/20 10:11:30;;;;;;;6.28;2.92;;;;;;;14.95;59.11;99636.56;5060151;28;20031;-70
2022/11/20 10:14:13;;;;;;;5.63;2.80;;;;;;;14.95;59.04;99637.41;5050042;28;20043;-69
2022/11/20 10:17:13;;;;;;;4.55;2.70;;;;;;;14.96;59.08;99631.25;5063803;28;20036;-69
2022/11/20 10:20:07;;;;;;;7.18;3.22;;;;;;;14.99;58.96;99643.44;5062404;28;20158;-69
2022/11/20 10:23:03;;;;;;;5.35;2.88;;;;;;;15.02;59.08;99654.69;5088578;28;20063;-69
2022/11/20 10:25:50;;;;;;;5.00;2.80;;;;;;;15.01;58.94;99650.34;5105596;28;20058;-68
2022/11/20 10:28:26;;;;;;;5.53;2.97;;;;;;;14.98;59.13;99652.22;5096868;28;20830;-69
2022/11/20 10:31:00;;;;;;;6.57;2.65;;;;;;;15.00;59.10;99651.28;5101961;28;20096;-69
2022/11/20 10:33:29;;;;;;;5.03;2.60;;;;;;;15.02;59.11;99659.97;5092932;28;20024;-70
2022/11/20 10:36:20;;;;;;;5.40;2.90;;;;;;;15.03;59.01;99653.78;5091527;28;20020;-69
2022/11/20 10:38:50;;;;;;;4.40;2.67;;;;;;;15.03;59.25;99650.31;5092102;28;20031;-69
2022/11/20 10:41:26;;;;;;;5.78;3.35;;;;;;;15.05;59.22;99643.22;5097802;28;20390;-69
2022/11/20 10:44:04;;;;;;;4.95;3.28;;;;;;;15.06;59.24;99638.84;5095603;28;20047;-69
2022/11/20 10:46:38;;;;;;;5.22;2.88;;;;;;;15.08;59.20;99621.25;5114696;27;20050;-70
2022/11/20 10:49:11;;;;;;;5.50;2.97;;;;;;;15.06;59.17;99620.44;5116992;28;20054;-69
2022/11/20 10:52:00;;;;;;;7.07;3.75;;;;;;;15.11;59.02;99621.16;5114312;28;20062;-70
2022/11/20 10:54:38;;;;;;;5.05;2.92;;;;;;;15.06;59.36;99618.66;5102032;28;20038;-70
2022/11/20 10:57:17;;;;;;;7.20;4.05;;;;;;;15.09;59.28;99622.97;5103832;27;20028;-70
2022/11/20 11:00:05;;;;;;;5.95;3.80;;;;;;;15.12;59.34;99612.34;5095648;28;20012;-69
2022/11/20 11:02:50;;;;;;;6.78;3.25;;;;;;;15.09;59.47;99601.94;5098041;27;20066;-69
2022/11/20 11:05:42;;;;;;;5.45;3.35;;;;;;;15.10;59.55;99598.38;5107898;28;20059;-69
2022/11/20 11:08:13;;;;;;;5.88;3.30;;;;;;;15.13;59.25;99587.78;5098480;28;20523;-69
2022/11/20 11:11:08;;;;;;;5.75;3.22;;;;;;;15.15;59.48;99592.06;5077050;28;20031;-69
2022/11/20 11:13:33;;;;;;;5.30;3.10;;;;;;;15.14;59.29;99594.75;5087814;28;20036;-69
2022/11/20 11:15:59;;;;;;;5.07;2.88;;;;;;;15.15;59.45;99591.19;5104366;28;20042;-69
2022/11/20 11:18:27;;;;;;;6.68;3.10;;;;;;;15.17;59.37;99592.03;5086219;28;20027;-70
2022/11/20 11:20:54;;;;;;;5.88;3.03;;;;;;;15.19;59.38;99587.56;5115854;28;20019;-69
2022/11/20 11:23:34;;;;;;;5.45;3.22;;;;;;;15.19;59.34;99584.94;5106298;28;20572;-70
2022/11/20 11:26:00;;;;;;;4.93;2.70;;;;;;;15.22;59.51;99587.47;5100921;28;20404;-69
2022/11/20 11:28:27;;;;;;;8.10;3.58;;;;;;;15.22;59.66;99587.47;5095240;28;20024;-69
2022/11/20 11:30:54;;;;;;;4.15;2.80;;;;;;;15.24;59.51;99585.63;5106303;28;20072;-69
2022/11/20 11:33:28;;;;;;;5.68;2.95;;;;;;;15.26;59.56;99575.09;5106112;28;20426;-70
2022/11/20 11:35:58;;;;;;;6.47;2.80;;;;;;;15.25;59.35;99566.31;5114284;27;20027;-70
2022/11/20 11:38:44;;;;;;;6.10;3.10;;;;;;;15.29;59.36;99562.69;5101847;27;20034;-70
2022/11/20 11:41:22;;;;;;;4.72;2.70;;;;;;;15.28;59.44;99555.72;5095458;28;20036;-69
2022/11/20 11:46:49;;;;;;;7.35;3.75;;;;;;;15.31;59.76;99546.84;5095292;28;20026;-69
2022/11/20 11:49:18;;;;;;;5.82;3.33;;;;;;;15.34;59.77;99543.25;5100089;28;20027;-69
2022/11/20 11:51:59;;;;;;;7.00;3.53;;;;;;;15.36;59.68;99541.44;5106402;27;20023;-70
2022/11/20 11:54:41;;;;;;;6.40;3.53;;;;;;;15.37;59.75;99532.63;5094344;28;20028;-70
2022/11/20 11:57:20;;;;;;;6.43;3.40;;;;;;;15.38;59.87;99529.06;5094475;28;20069;-69